sensor_id;sensor_type;location;lat;lon;timestamp;temperature;humidity
20442;DHT22;10380;52.102;20.614;2023-05-07T00:02:06;6.90;99.90
20442;DHT22;10380;52.102;20.614;2023-05-07T00:04:34;6.90;99.90
20442;DHT22;10380;52.102;20.614;2023-05-07T00:07:05;6.90;99.90
20442;DHT22;10380;52.102;20.614;2023-05-07T00:09:32;6.90;99.90
20442;DHT22;10380;52.102;20.614;2023-05-07T00:12:00;6.90;99.90
20442;DHT22;10380;52.102;20.614;2023-05-07T00:14:27;6.90;99.90
20442;DHT22;10380;52.102;20.614;2023-05-07T00:16:53;6.90;99.90
20442;DHT22;10380;52.102;20.614;2023-05-07T00:19:21;6.90;99.90
20442;DHT22;10380;52.102;20.614;2023-05-07T00:21:47;6.90;99.90
20442;DHT22;10380;52.102;20.614;2023-05-07T00:24:14;6.90;99.90
20442;DHT22;10380;52.102;20.614;2023-05-07T00:26:41;6.90;99.90
20442;DHT22;10380;52.102;20.614;2023-05-07T00:29:09;6.90;99.90
20442;DHT22;10380;52.102;20.614;2023-05-07T00:31:36;6.80;99.90
20442;DHT22;10380;52.102;20.614;2023-05-07T00:34:03;6.90;99.90
20442;DHT22;10380;52.102;20.614;2023-05-07T00:36:31;6.80;99.90
20442;DHT22;10380;52.102;20.614;2023-05-07T00:39:00;6.80;99.90
20442;DHT22;10380;52.102;20.614;2023-05-07T00:41:27;6.80;99.90
20442;DHT22;10380;52.102;20.614;2023-05-07T00:43:54;6.80;99.90
20442;DHT22;10380;52.102;20.614;2023-05-07T00:46:21;6.70;99.90
20442;DHT22;10380;52.102;20.614;2023-05-07T00:48:50;6.70;99.90
20442;DHT22;10380;52.102;20.614;2023-05-07T00:51:18;6.70;99.90
20442;DHT22;10380;52.102;20.614;2023-05-07T00:53:46;6.70;99.90
20442;DHT22;10380;52.102;20.614;2023-05-07T00:56:13;6.70;99.90
20442;DHT22;10380;52.102;20.614;2023-05-07T00:58:40;6.70;99.90
20442;DHT22;10380;52.102;20.614;2023-05-07T01:01:07;6.70;99.90
20442;DHT22;10380;52.102;20.614;2023-05-07T01:03:34;6.70;99.90
20442;DHT22;10380;52.102;20.614;2023-05-07T01:06:03;6.70;99.90
20442;DHT22;10380;52.102;20.614;2023-05-07T01:08:32;6.70;99.90
20442;DHT22;10380;52.102;20.614;2023-05-07T01:11:00;6.70;99.90
20442;DHT22;10380;52.102;20.614;2023-05-07T01:13:30;6.70;99.90
20442;DHT22;10380;52.102;20.614;2023-05-07T01:15:57;6.70;99.90
20442;DHT22;10380;52.102;20.614;2023-05-07T01:18:25;6.70;99.90
20442;DHT22;10380;52.102;20.614;2023-05-07T01:20:54;6.70;99.90
20442;DHT22;10380;52.102;20.614;2023-05-07T01:23:22;6.70;99.90
20442;DHT22;10380;52.102;20.614;2023-05-07T01:25:53;6.70;99.90
20442;DHT22;10380;52.102;20.614;2023-05-07T01:28:20;6.70;99.90
20442;DHT22;10380;52.102;20.614;2023-05-07T01:30:52;6.70;99.90
20442;DHT22;10380;52.102;20.614;2023-05-07T01:33:21;6.70;99.90
20442;DHT22;10380;52.102;20.614;2023-05-07T01:35:51;6.70;99.90
20442;DHT22;10380;52.102;20.614;2023-05-07T01:38:20;6.60;99.90
20442;DHT22;10380;52.102;20.614;2023-05-07T01:40:48;6.60;99.90
20442;DHT22;10380;52.102;20.614;2023-05-07T01:43:15;6.60;99.90
20442;DHT22;10380;52.102;20.614;2023-05-07T01:45:42;6.50;99.90
20442;DHT22;10380;52.102;20.614;2023-05-07T01:48:11;6.50;99.90
20442;DHT22;10380;52.102;20.614;2023-05-07T01:50:39;6.50;99.90
20442;DHT22;10380;52.102;20.614;2023-05-07T01:53:07;6.60;99.90
20442;DHT22;10380;52.102;20.614;2023-05-07T01:55:34;6.50;99.90
20442;DHT22;10380;52.102;20.614;2023-05-07T01:58:04;6.50;99.90
20442;DHT22;10380;52.102;20.614;2023-05-07T02:00:31;6.50;99.90
20442;DHT22;10380;52.102;20.614;2023-05-07T02:02:58;6.50;99.90
20442;DHT22;10380;52.102;20.614;2023-05-07T02:05:26;6.50;99.90
20442;DHT22;10380;52.102;20.614;2023-05-07T02:07:53;6.50;99.90
20442;DHT22;10380;52.102;20.614;2023-05-07T02:10:20;6.50;99.90
20442;DHT22;10380;52.102;20.614;2023-05-07T02:12:47;6.50;99.90
20442;DHT22;10380;52.102;20.614;2023-05-07T02:15:14;6.50;99.90
20442;DHT22;10380;52.102;20.614;2023-05-07T02:18:13;6.50;99.90
20442;DHT22;10380;52.102;20.614;2023-05-07T02:20:40;6.50;99.90
20442;DHT22;10380;52.102;20.614;2023-05-07T02:23:07;6.40;99.90
20442;DHT22;10380;52.102;20.614;2023-05-07T02:25:34;6.40;99.90
20442;DHT22;10380;52.102;20.614;2023-05-07T02:28:01;6.50;99.90
20442;DHT22;10380;52.102;20.614;2023-05-07T02:30:28;6.40;99.90
20442;DHT22;10380;52.102;20.614;2023-05-07T02:32:55;6.50;99.90
20442;DHT22;10380;52.102;20.614;2023-05-07T02:35:23;6.50;99.90
20442;DHT22;10380;52.102;20.614;2023-05-07T02:37:50;6.40;99.90
20442;DHT22;10380;52.102;20.614;2023-05-07T02:40:17;6.50;99.90
20442;DHT22;10380;52.102;20.614;2023-05-07T02:42:45;6.40;99.90
20442;DHT22;10380;52.102;20.614;2023-05-07T02:45:12;6.40;99.90
20442;DHT22;10380;52.102;20.614;2023-05-07T02:47:40;6.40;99.90
20442;DHT22;10380;52.102;20.614;2023-05-07T02:50:07;6.40;99.90
20442;DHT22;10380;52.102;20.614;2023-05-07T02:52:34;6.40;99.90
20442;DHT22;10380;52.102;20.614;2023-05-07T02:55:01;6.40;99.90
20442;DHT22;10380;52.102;20.614;2023-05-07T02:57:29;6.40;99.90
20442;DHT22;10380;52.102;20.614;2023-05-07T02:59:58;6.40;99.90
20442;DHT22;10380;52.102;20.614;2023-05-07T03:02:25;6.40;99.90
20442;DHT22;10380;52.102;20.614;2023-05-07T03:04:51;6.30;99.90
20442;DHT22;10380;52.102;20.614;2023-05-07T03:07:19;6.40;99.90
20442;DHT22;10380;52.102;20.614;2023-05-07T03:09:46;6.30;99.90
20442;DHT22;10380;52.102;20.614;2023-05-07T03:12:13;6.30;99.90
20442;DHT22;10380;52.102;20.614;2023-05-07T03:14:40;6.30;99.90
20442;DHT22;10380;52.102;20.614;2023-05-07T03:17:07;6.40;99.90
20442;DHT22;10380;52.102;20.614;2023-05-07T03:19:33;6.30;99.90
20442;DHT22;10380;52.102;20.614;2023-05-07T03:22:00;6.30;99.90
20442;DHT22;10380;52.102;20.614;2023-05-07T03:24:27;6.30;99.90
20442;DHT22;10380;52.102;20.614;2023-05-07T03:26:55;6.30;99.90
20442;DHT22;10380;52.102;20.614;2023-05-07T03:29:24;6.30;99.90
20442;DHT22;10380;52.102;20.614;2023-05-07T03:31:50;6.40;99.90
20442;DHT22;10380;52.102;20.614;2023-05-07T03:34:18;6.30;99.90
20442;DHT22;10380;52.102;20.614;2023-05-07T03:36:49;6.40;99.90
20442;DHT22;10380;52.102;20.614;2023-05-07T03:39:16;6.40;99.90
20442;DHT22;10380;52.102;20.614;2023-05-07T03:41:43;6.30;99.90
20442;DHT22;10380;52.102;20.614;2023-05-07T03:44:10;6.40;99.90
20442;DHT22;10380;52.102;20.614;2023-05-07T03:46:37;6.40;99.90
20442;DHT22;10380;52.102;20.614;2023-05-07T03:49:04;6.40;99.90
20442;DHT22;10380;52.102;20.614;2023-05-07T03:51:32;6.40;99.90
20442;DHT22;10380;52.102;20.614;2023-05-07T03:53:59;6.40;99.90
20442;DHT22;10380;52.102;20.614;2023-05-07T03:56:26;6.40;99.90
20442;DHT22;10380;52.102;20.614;2023-05-07T03:58:54;6.40;99.90
20442;DHT22;10380;52.102;20.614;2023-05-07T04:01:21;6.40;99.90
20442;DHT22;10380;52.102;20.614;2023-05-07T04:03:48;6.40;99.90
20442;DHT22;10380;52.102;20.614;2023-05-07T04:06:16;6.40;99.90
20442;DHT22;10380;52.102;20.614;2023-05-07T04:08:46;6.40;99.90
20442;DHT22;10380;52.102;20.614;2023-05-07T04:11:12;6.40;99.90
20442;DHT22;10380;52.102;20.614;2023-05-07T04:13:39;6.40;99.90
20442;DHT22;10380;52.102;20.614;2023-05-07T04:16:06;6.50;99.90
20442;DHT22;10380;52.102;20.614;2023-05-07T04:18:33;6.50;99.90
20442;DHT22;10380;52.102;20.614;2023-05-07T04:21:00;6.50;99.90
20442;DHT22;10380;52.102;20.614;2023-05-07T04:23:27;6.50;99.90
20442;DHT22;10380;52.102;20.614;2023-05-07T04:25:54;6.60;99.90
20442;DHT22;10380;52.102;20.614;2023-05-07T04:28:22;6.60;99.90
20442;DHT22;10380;52.102;20.614;2023-05-07T04:30:48;6.60;99.90
20442;DHT22;10380;52.102;20.614;2023-05-07T04:33:15;6.60;99.90
20442;DHT22;10380;52.102;20.614;2023-05-07T04:35:45;6.60;99.90
20442;DHT22;10380;52.102;20.614;2023-05-07T04:38:12;6.60;99.90
20442;DHT22;10380;52.102;20.614;2023-05-07T04:40:39;6.60;99.90
20442;DHT22;10380;52.102;20.614;2023-05-07T04:43:06;6.60;99.90
20442;DHT22;10380;52.102;20.614;2023-05-07T04:45:36;6.60;99.90
20442;DHT22;10380;52.102;20.614;2023-05-07T04:48:03;6.60;99.90
20442;DHT22;10380;52.102;20.614;2023-05-07T04:50:30;6.60;99.90
20442;DHT22;10380;52.102;20.614;2023-05-07T04:52:58;6.70;99.90
20442;DHT22;10380;52.102;20.614;2023-05-07T04:55:24;6.70;99.90
20442;DHT22;10380;52.102;20.614;2023-05-07T04:57:52;6.60;99.90
20442;DHT22;10380;52.102;20.614;2023-05-07T05:00:19;6.70;99.90
20442;DHT22;10380;52.102;20.614;2023-05-07T05:02:48;6.70;99.90
20442;DHT22;10380;52.102;20.614;2023-05-07T05:05:15;6.70;99.90
20442;DHT22;10380;52.102;20.614;2023-05-07T05:07:42;6.70;99.90
20442;DHT22;10380;52.102;20.614;2023-05-07T05:10:09;6.70;99.90
20442;DHT22;10380;52.102;20.614;2023-05-07T05:12:36;6.70;99.90
20442;DHT22;10380;52.102;20.614;2023-05-07T05:15:05;6.70;99.90
20442;DHT22;10380;52.102;20.614;2023-05-07T05:17:32;6.70;99.90
20442;DHT22;10380;52.102;20.614;2023-05-07T05:20:01;6.70;99.90
20442;DHT22;10380;52.102;20.614;2023-05-07T05:22:29;6.80;99.90
20442;DHT22;10380;52.102;20.614;2023-05-07T05:24:58;6.80;99.90
20442;DHT22;10380;52.102;20.614;2023-05-07T05:27:24;6.80;99.90
20442;DHT22;10380;52.102;20.614;2023-05-07T05:29:51;6.80;99.90
20442;DHT22;10380;52.102;20.614;2023-05-07T05:32:18;6.80;99.90
20442;DHT22;10380;52.102;20.614;2023-05-07T05:34:45;6.90;99.90
20442;DHT22;10380;52.102;20.614;2023-05-07T05:37:12;6.90;99.90
20442;DHT22;10380;52.102;20.614;2023-05-07T05:39:39;6.90;99.90
20442;DHT22;10380;52.102;20.614;2023-05-07T05:42:06;7.00;99.90
20442;DHT22;10380;52.102;20.614;2023-05-07T05:44:32;7.10;99.90
20442;DHT22;10380;52.102;20.614;2023-05-07T05:46:59;7.10;99.90
20442;DHT22;10380;52.102;20.614;2023-05-07T05:49:26;7.20;99.90
20442;DHT22;10380;52.102;20.614;2023-05-07T05:51:53;7.30;99.90
20442;DHT22;10380;52.102;20.614;2023-05-07T05:54:20;7.40;99.90
20442;DHT22;10380;52.102;20.614;2023-05-07T05:56:47;7.50;99.90
20442;DHT22;10380;52.102;20.614;2023-05-07T05:59:15;7.50;99.90
20442;DHT22;10380;52.102;20.614;2023-05-07T06:01:42;7.50;99.90
20442;DHT22;10380;52.102;20.614;2023-05-07T06:04:09;7.50;99.90
20442;DHT22;10380;52.102;20.614;2023-05-07T06:06:36;7.60;99.90
20442;DHT22;10380;52.102;20.614;2023-05-07T06:09:03;7.60;99.90
20442;DHT22;10380;52.102;20.614;2023-05-07T06:11:31;7.50;99.90
20442;DHT22;10380;52.102;20.614;2023-05-07T06:13:58;7.50;99.90
20442;DHT22;10380;52.102;20.614;2023-05-07T06:16:25;7.60;99.90
20442;DHT22;10380;52.102;20.614;2023-05-07T06:18:52;7.60;99.90
20442;DHT22;10380;52.102;20.614;2023-05-07T06:21:19;7.60;99.90
20442;DHT22;10380;52.102;20.614;2023-05-07T06:23:46;7.70;99.90
20442;DHT22;10380;52.102;20.614;2023-05-07T06:26:13;7.70;99.90
20442;DHT22;10380;52.102;20.614;2023-05-07T06:28:40;7.80;99.90
20442;DHT22;10380;52.102;20.614;2023-05-07T06:31:18;7.80;99.90
20442;DHT22;10380;52.102;20.614;2023-05-07T06:33:48;7.90;99.90
20442;DHT22;10380;52.102;20.614;2023-05-07T06:36:15;7.90;99.90
20442;DHT22;10380;52.102;20.614;2023-05-07T06:38:42;7.90;99.90
20442;DHT22;10380;52.102;20.614;2023-05-07T06:41:09;8.00;99.90
20442;DHT22;10380;52.102;20.614;2023-05-07T06:43:36;8.10;99.90
20442;DHT22;10380;52.102;20.614;2023-05-07T06:46:03;8.20;99.90
20442;DHT22;10380;52.102;20.614;2023-05-07T06:48:30;8.30;99.90
20442;DHT22;10380;52.102;20.614;2023-05-07T06:50:57;8.50;99.90
20442;DHT22;10380;52.102;20.614;2023-05-07T06:53:24;8.60;99.90
20442;DHT22;10380;52.102;20.614;2023-05-07T06:55:52;8.80;99.90
20442;DHT22;10380;52.102;20.614;2023-05-07T06:58:19;8.90;99.90
20442;DHT22;10380;52.102;20.614;2023-05-07T07:00:46;9.10;99.90
20442;DHT22;10380;52.102;20.614;2023-05-07T07:03:13;9.20;99.90
20442;DHT22;10380;52.102;20.614;2023-05-07T07:05:43;9.30;99.90
20442;DHT22;10380;52.102;20.614;2023-05-07T07:08:10;9.40;99.90
20442;DHT22;10380;52.102;20.614;2023-05-07T07:10:37;9.50;99.90
20442;DHT22;10380;52.102;20.614;2023-05-07T07:13:03;9.60;99.90
20442;DHT22;10380;52.102;20.614;2023-05-07T07:15:31;9.70;99.90
20442;DHT22;10380;52.102;20.614;2023-05-07T07:17:58;9.80;99.90
20442;DHT22;10380;52.102;20.614;2023-05-07T07:20:25;9.90;99.90
20442;DHT22;10380;52.102;20.614;2023-05-07T07:22:52;9.90;99.90
20442;DHT22;10380;52.102;20.614;2023-05-07T07:25:18;9.90;99.90
20442;DHT22;10380;52.102;20.614;2023-05-07T07:27:46;10.00;99.90
20442;DHT22;10380;52.102;20.614;2023-05-07T07:30:13;10.10;99.90
20442;DHT22;10380;52.102;20.614;2023-05-07T07:32:40;10.20;99.90
20442;DHT22;10380;52.102;20.614;2023-05-07T07:35:07;10.20;99.90
20442;DHT22;10380;52.102;20.614;2023-05-07T07:37:35;10.30;99.90
20442;DHT22;10380;52.102;20.614;2023-05-07T07:40:03;10.30;99.90
20442;DHT22;10380;52.102;20.614;2023-05-07T07:42:30;10.30;99.90
20442;DHT22;10380;52.102;20.614;2023-05-07T07:44:57;10.40;99.90
20442;DHT22;10380;52.102;20.614;2023-05-07T07:47:24;10.40;99.90
20442;DHT22;10380;52.102;20.614;2023-05-07T07:49:51;10.40;99.90
20442;DHT22;10380;52.102;20.614;2023-05-07T07:52:18;10.50;99.90
20442;DHT22;10380;52.102;20.614;2023-05-07T07:54:45;10.40;99.90
20442;DHT22;10380;52.102;20.614;2023-05-07T07:57:12;10.40;99.90
20442;DHT22;10380;52.102;20.614;2023-05-07T07:59:39;10.40;99.90
20442;DHT22;10380;52.102;20.614;2023-05-07T08:02:06;10.40;99.90
20442;DHT22;10380;52.102;20.614;2023-05-07T08:04:33;10.50;99.90
20442;DHT22;10380;52.102;20.614;2023-05-07T08:07:00;10.50;99.90
20442;DHT22;10380;52.102;20.614;2023-05-07T08:09:27;10.40;99.90
20442;DHT22;10380;52.102;20.614;2023-05-07T08:11:53;10.40;99.90
20442;DHT22;10380;52.102;20.614;2023-05-07T08:14:20;10.40;99.90
20442;DHT22;10380;52.102;20.614;2023-05-07T08:16:47;10.40;99.90
20442;DHT22;10380;52.102;20.614;2023-05-07T08:19:14;10.30;99.90
20442;DHT22;10380;52.102;20.614;2023-05-07T08:21:42;10.30;99.90
20442;DHT22;10380;52.102;20.614;2023-05-07T08:24:09;10.30;99.90
20442;DHT22;10380;52.102;20.614;2023-05-07T08:26:37;10.30;99.90
20442;DHT22;10380;52.102;20.614;2023-05-07T08:29:06;10.30;99.90
20442;DHT22;10380;52.102;20.614;2023-05-07T08:31:33;10.40;99.90
20442;DHT22;10380;52.102;20.614;2023-05-07T08:34:00;10.40;99.90
20442;DHT22;10380;52.102;20.614;2023-05-07T08:36:27;10.40;99.90
20442;DHT22;10380;52.102;20.614;2023-05-07T08:38:55;10.50;99.90
20442;DHT22;10380;52.102;20.614;2023-05-07T08:41:22;10.60;99.90
20442;DHT22;10380;52.102;20.614;2023-05-07T08:43:50;10.70;99.90
20442;DHT22;10380;52.102;20.614;2023-05-07T08:46:21;10.80;99.90
20442;DHT22;10380;52.102;20.614;2023-05-07T08:48:49;10.80;99.90
20442;DHT22;10380;52.102;20.614;2023-05-07T08:51:18;10.80;99.90
20442;DHT22;10380;52.102;20.614;2023-05-07T08:53:46;10.80;99.90
20442;DHT22;10380;52.102;20.614;2023-05-07T08:56:15;10.70;99.90
20442;DHT22;10380;52.102;20.614;2023-05-07T08:58:44;10.70;99.90
20442;DHT22;10380;52.102;20.614;2023-05-07T09:01:15;10.70;99.90
20442;DHT22;10380;52.102;20.614;2023-05-07T09:03:44;10.60;99.90
20442;DHT22;10380;52.102;20.614;2023-05-07T09:06:12;10.60;99.90
20442;DHT22;10380;52.102;20.614;2023-05-07T09:08:38;10.60;99.90
20442;DHT22;10380;52.102;20.614;2023-05-07T09:11:05;10.60;99.90
20442;DHT22;10380;52.102;20.614;2023-05-07T09:13:32;10.60;99.90
20442;DHT22;10380;52.102;20.614;2023-05-07T09:16:04;10.60;99.90
20442;DHT22;10380;52.102;20.614;2023-05-07T09:18:43;10.70;99.90
20442;DHT22;10380;52.102;20.614;2023-05-07T09:21:17;10.70;99.90
20442;DHT22;10380;52.102;20.614;2023-05-07T09:23:44;10.80;99.90
20442;DHT22;10380;52.102;20.614;2023-05-07T09:26:11;10.90;99.90
20442;DHT22;10380;52.102;20.614;2023-05-07T09:28:42;11.00;99.90
20442;DHT22;10380;52.102;20.614;2023-05-07T09:31:10;11.00;99.90
20442;DHT22;10380;52.102;20.614;2023-05-07T09:33:38;11.00;99.90
20442;DHT22;10380;52.102;20.614;2023-05-07T09:36:06;11.00;99.90
20442;DHT22;10380;52.102;20.614;2023-05-07T09:38:34;10.90;99.90
20442;DHT22;10380;52.102;20.614;2023-05-07T09:41:09;10.80;99.90
20442;DHT22;10380;52.102;20.614;2023-05-07T09:43:38;10.80;99.90
20442;DHT22;10380;52.102;20.614;2023-05-07T09:46:14;10.70;99.90
20442;DHT22;10380;52.102;20.614;2023-05-07T09:48:43;10.80;99.90
20442;DHT22;10380;52.102;20.614;2023-05-07T09:51:29;10.90;99.90
20442;DHT22;10380;52.102;20.614;2023-05-07T09:53:57;11.10;99.90
20442;DHT22;10380;52.102;20.614;2023-05-07T09:56:24;11.30;99.90
20442;DHT22;10380;52.102;20.614;2023-05-07T09:58:53;11.50;99.90
20442;DHT22;10380;52.102;20.614;2023-05-07T10:01:20;11.80;99.90
20442;DHT22;10380;52.102;20.614;2023-05-07T10:03:49;12.00;99.90
20442;DHT22;10380;52.102;20.614;2023-05-07T10:06:17;12.20;99.90
20442;DHT22;10380;52.102;20.614;2023-05-07T10:08:46;12.40;99.90
20442;DHT22;10380;52.102;20.614;2023-05-07T10:11:14;12.50;99.90
20442;DHT22;10380;52.102;20.614;2023-05-07T10:13:43;12.60;99.90
20442;DHT22;10380;52.102;20.614;2023-05-07T10:16:10;12.80;99.90
20442;DHT22;10380;52.102;20.614;2023-05-07T10:18:38;12.80;99.90
20442;DHT22;10380;52.102;20.614;2023-05-07T10:21:07;12.80;99.90
20442;DHT22;10380;52.102;20.614;2023-05-07T10:23:35;12.70;99.90
20442;DHT22;10380;52.102;20.614;2023-05-07T10:26:04;12.70;99.90
20442;DHT22;10380;52.102;20.614;2023-05-07T10:28:39;12.60;99.90
20442;DHT22;10380;52.102;20.614;2023-05-07T10:34:20;12.50;99.90
20442;DHT22;10380;52.102;20.614;2023-05-07T10:36:48;12.60;99.90
20442;DHT22;10380;52.102;20.614;2023-05-07T10:39:17;12.60;99.90
20442;DHT22;10380;52.102;20.614;2023-05-07T10:41:43;12.90;99.90
20442;DHT22;10380;52.102;20.614;2023-05-07T10:44:10;13.00;99.90
20442;DHT22;10380;52.102;20.614;2023-05-07T10:46:38;13.10;99.90
20442;DHT22;10380;52.102;20.614;2023-05-07T10:51:35;13.10;99.90
20442;DHT22;10380;52.102;20.614;2023-05-07T10:56:41;12.80;99.90
20442;DHT22;10380;52.102;20.614;2023-05-07T11:02:04;12.40;99.90
20442;DHT22;10380;52.102;20.614;2023-05-07T11:04:33;12.30;99.90
20442;DHT22;10380;52.102;20.614;2023-05-07T11:15:11;12.30;99.90
20442;DHT22;10380;52.102;20.614;2023-05-07T11:17:56;12.20;99.90
20442;DHT22;10380;52.102;20.614;2023-05-07T11:20:54;12.10;99.90
20442;DHT22;10380;52.102;20.614;2023-05-07T11:26:06;12.10;99.90
20442;DHT22;10380;52.102;20.614;2023-05-07T11:28:41;12.10;99.90
20442;DHT22;10380;52.102;20.614;2023-05-07T11:31:09;12.20;99.90
20442;DHT22;10380;52.102;20.614;2023-05-07T11:33:37;12.40;99.90
20442;DHT22;10380;52.102;20.614;2023-05-07T11:36:05;12.50;99.90
20442;DHT22;10380;52.102;20.614;2023-05-07T11:38:37;12.50;99.90
20442;DHT22;10380;52.102;20.614;2023-05-07T11:41:05;12.60;99.90
20442;DHT22;10380;52.102;20.614;2023-05-07T11:43:32;12.70;99.90
20442;DHT22;10380;52.102;20.614;2023-05-07T11:46:10;12.80;99.90
20442;DHT22;10380;52.102;20.614;2023-05-07T11:48:38;13.00;99.90
20442;DHT22;10380;52.102;20.614;2023-05-07T11:51:06;13.30;99.90
20442;DHT22;10380;52.102;20.614;2023-05-07T11:53:37;13.60;99.90
20442;DHT22;10380;52.102;20.614;2023-05-07T11:56:14;13.90;99.90
20442;DHT22;10380;52.102;20.614;2023-05-07T11:58:43;14.20;99.90
20442;DHT22;10380;52.102;20.614;2023-05-07T12:01:11;14.50;99.90
20442;DHT22;10380;52.102;20.614;2023-05-07T12:03:42;14.70;99.90
20442;DHT22;10380;52.102;20.614;2023-05-07T12:06:10;14.80;99.90
20442;DHT22;10380;52.102;20.614;2023-05-07T12:08:39;14.70;99.90
20442;DHT22;10380;52.102;20.614;2023-05-07T12:11:14;14.60;99.90
20442;DHT22;10380;52.102;20.614;2023-05-07T12:13:41;14.70;99.90
20442;DHT22;10380;52.102;20.614;2023-05-07T12:16:09;15.00;99.90
20442;DHT22;10380;52.102;20.614;2023-05-07T12:18:37;15.20;99.90
20442;DHT22;10380;52.102;20.614;2023-05-07T12:21:05;15.30;99.90
20442;DHT22;10380;52.102;20.614;2023-05-07T12:23:34;15.30;99.90
20442;DHT22;10380;52.102;20.614;2023-05-07T12:26:01;15.30;99.90
20442;DHT22;10380;52.102;20.614;2023-05-07T12:28:37;15.30;99.90
20442;DHT22;10380;52.102;20.614;2023-05-07T12:31:05;15.30;99.90
20442;DHT22;10380;52.102;20.614;2023-05-07T12:33:32;15.20;99.90
20442;DHT22;10380;52.102;20.614;2023-05-07T12:36:05;15.00;99.90
20442;DHT22;10380;52.102;20.614;2023-05-07T12:38:37;14.90;99.90
20442;DHT22;10380;52.102;20.614;2023-05-07T12:41:08;14.80;99.90
20442;DHT22;10380;52.102;20.614;2023-05-07T12:43:35;14.60;99.90
20442;DHT22;10380;52.102;20.614;2023-05-07T12:46:07;14.50;99.90
20442;DHT22;10380;52.102;20.614;2023-05-07T12:48:37;14.30;99.90
20442;DHT22;10380;52.102;20.614;2023-05-07T12:51:06;14.00;99.90
20442;DHT22;10380;52.102;20.614;2023-05-07T12:53:40;13.80;99.90
20442;DHT22;10380;52.102;20.614;2023-05-07T12:56:07;13.60;99.90
20442;DHT22;10380;52.102;20.614;2023-05-07T12:58:35;13.50;99.90
20442;DHT22;10380;52.102;20.614;2023-05-07T13:01:07;13.40;99.90
20442;DHT22;10380;52.102;20.614;2023-05-07T13:03:38;13.20;99.90
20442;DHT22;10380;52.102;20.614;2023-05-07T13:06:07;13.10;99.90
20442;DHT22;10380;52.102;20.614;2023-05-07T13:08:38;13.00;99.90
20442;DHT22;10380;52.102;20.614;2023-05-07T13:11:08;13.00;99.90
20442;DHT22;10380;52.102;20.614;2023-05-07T13:13:38;13.00;99.90
20442;DHT22;10380;52.102;20.614;2023-05-07T13:16:07;13.10;99.90
20442;DHT22;10380;52.102;20.614;2023-05-07T13:18:34;13.10;99.90
20442;DHT22;10380;52.102;20.614;2023-05-07T13:21:01;13.30;99.90
20442;DHT22;10380;52.102;20.614;2023-05-07T13:23:28;13.70;99.90
20442;DHT22;10380;52.102;20.614;2023-05-07T13:25:56;14.20;99.90
20442;DHT22;10380;52.102;20.614;2023-05-07T13:28:24;14.70;99.90
20442;DHT22;10380;52.102;20.614;2023-05-07T13:30:53;15.00;99.90
20442;DHT22;10380;52.102;20.614;2023-05-07T13:33:21;15.10;99.90
20442;DHT22;10380;52.102;20.614;2023-05-07T13:35:48;15.10;99.90
20442;DHT22;10380;52.102;20.614;2023-05-07T13:38:15;15.00;99.90
20442;DHT22;10380;52.102;20.614;2023-05-07T13:40:42;15.10;99.90
20442;DHT22;10380;52.102;20.614;2023-05-07T13:43:09;15.10;99.90
20442;DHT22;10380;52.102;20.614;2023-05-07T13:45:37;15.20;99.90
20442;DHT22;10380;52.102;20.614;2023-05-07T13:48:04;15.10;99.90
20442;DHT22;10380;52.102;20.614;2023-05-07T13:50:32;14.90;99.90
20442;DHT22;10380;52.102;20.614;2023-05-07T13:52:59;14.60;99.90
20442;DHT22;10380;52.102;20.614;2023-05-07T13:55:29;14.50;99.90
20442;DHT22;10380;52.102;20.614;2023-05-07T13:57:57;15.00;99.90
20442;DHT22;10380;52.102;20.614;2023-05-07T14:00:25;15.90;99.90
20442;DHT22;10380;52.102;20.614;2023-05-07T14:02:53;17.00;99.90
20442;DHT22;10380;52.102;20.614;2023-05-07T14:05:21;17.60;99.90
20442;DHT22;10380;52.102;20.614;2023-05-07T14:07:53;18.00;99.90
20442;DHT22;10380;52.102;20.614;2023-05-07T14:10:21;17.90;99.90
20442;DHT22;10380;52.102;20.614;2023-05-07T14:12:47;17.50;99.90
20442;DHT22;10380;52.102;20.614;2023-05-07T14:15:15;17.10;99.90
20442;DHT22;10380;52.102;20.614;2023-05-07T14:17:43;16.70;99.90
20442;DHT22;10380;52.102;20.614;2023-05-07T14:20:10;16.50;99.90
20442;DHT22;10380;52.102;20.614;2023-05-07T14:22:38;16.20;99.90
20442;DHT22;10380;52.102;20.614;2023-05-07T14:25:05;15.90;99.90
20442;DHT22;10380;52.102;20.614;2023-05-07T14:27:33;15.60;99.90
20442;DHT22;10380;52.102;20.614;2023-05-07T14:30:00;15.30;99.90
20442;DHT22;10380;52.102;20.614;2023-05-07T14:32:27;15.10;99.90
20442;DHT22;10380;52.102;20.614;2023-05-07T14:34:54;14.90;99.90
20442;DHT22;10380;52.102;20.614;2023-05-07T14:37:20;14.90;99.90
20442;DHT22;10380;52.102;20.614;2023-05-07T14:39:47;15.20;99.90
20442;DHT22;10380;52.102;20.614;2023-05-07T14:42:16;15.80;99.90
20442;DHT22;10380;52.102;20.614;2023-05-07T14:44:44;16.50;99.90
20442;DHT22;10380;52.102;20.614;2023-05-07T14:47:13;17.20;99.90
20442;DHT22;10380;52.102;20.614;2023-05-07T14:49:39;17.80;99.90
20442;DHT22;10380;52.102;20.614;2023-05-07T14:52:07;18.50;99.90
20442;DHT22;10380;52.102;20.614;2023-05-07T14:54:37;19.10;99.90
20442;DHT22;10380;52.102;20.614;2023-05-07T14:57:05;19.60;99.90
20442;DHT22;10380;52.102;20.614;2023-05-07T14:59:32;19.80;99.90
20442;DHT22;10380;52.102;20.614;2023-05-07T15:01:59;19.80;99.90
20442;DHT22;10380;52.102;20.614;2023-05-07T15:04:29;19.50;99.90
20442;DHT22;10380;52.102;20.614;2023-05-07T15:06:56;19.20;99.90
20442;DHT22;10380;52.102;20.614;2023-05-07T15:09:23;18.70;99.90
20442;DHT22;10380;52.102;20.614;2023-05-07T15:11:50;18.20;99.90
20442;DHT22;10380;52.102;20.614;2023-05-07T15:14:17;17.70;99.90
20442;DHT22;10380;52.102;20.614;2023-05-07T15:16:44;17.50;99.90
20442;DHT22;10380;52.102;20.614;2023-05-07T15:19:11;17.70;99.90
20442;DHT22;10380;52.102;20.614;2023-05-07T15:21:38;18.30;99.90
20442;DHT22;10380;52.102;20.614;2023-05-07T15:24:05;18.70;99.90
20442;DHT22;10380;52.102;20.614;2023-05-07T15:26:32;19.00;99.90
20442;DHT22;10380;52.102;20.614;2023-05-07T15:28:59;19.20;99.90
20442;DHT22;10380;52.102;20.614;2023-05-07T15:31:26;19.60;99.90
20442;DHT22;10380;52.102;20.614;2023-05-07T15:33:53;20.00;99.90
20442;DHT22;10380;52.102;20.614;2023-05-07T15:36:20;20.50;99.90
20442;DHT22;10380;52.102;20.614;2023-05-07T15:38:47;21.10;99.90
20442;DHT22;10380;52.102;20.614;2023-05-07T15:41:14;21.60;99.90
20442;DHT22;10380;52.102;20.614;2023-05-07T15:43:50;21.50;99.20
20442;DHT22;10380;52.102;20.614;2023-05-07T15:46:21;21.20;98.40
20442;DHT22;10380;52.102;20.614;2023-05-07T15:48:53;20.70;98.50
20442;DHT22;10380;52.102;20.614;2023-05-07T15:51:21;20.10;98.50